createdAt,value
2024-05-09T00:00:22.273Z,8.60
2024-05-09T00:03:23.760Z,8.52
2024-05-09T00:05:57.748Z,8.50
2024-05-09T00:08:31.642Z,8.50
2024-05-09T00:11:06.026Z,8.50
2024-05-09T00:13:40.238Z,8.46
2024-05-09T00:16:14.070Z,8.46
2024-05-09T00:18:47.751Z,8.42
2024-05-09T00:21:22.914Z,8.46
2024-05-09T00:23:57.467Z,8.40
2024-05-09T00:26:31.262Z,8.30
2024-05-09T00:29:05.139Z,8.30
2024-05-09T00:31:38.998Z,8.20
2024-05-09T00:34:12.702Z,8.18
2024-05-09T00:36:46.856Z,8.10
2024-05-09T00:40:51.939Z,8.10
2024-05-09T00:43:26.452Z,8.00
2024-05-09T00:46:02.179Z,7.94
2024-05-09T00:48:36.971Z,7.86
2024-05-09T00:51:12.358Z,7.80
2024-05-09T00:53:47.293Z,7.70
2024-05-09T00:56:23.207Z,7.70
2024-05-09T00:58:59.401Z,7.70
2024-05-09T01:01:34.850Z,7.70
2024-05-09T01:04:11.516Z,7.70
2024-05-09T01:06:46.102Z,7.70
2024-05-09T01:09:19.947Z,7.70
2024-05-09T01:11:54.399Z,7.70
2024-05-09T01:14:29.268Z,7.70
2024-05-09T01:17:03.749Z,7.66
2024-05-09T01:19:38.342Z,7.60
2024-05-09T01:22:12.307Z,7.60
2024-05-09T01:24:46.985Z,7.60
2024-05-09T01:27:21.425Z,7.50
2024-05-09T01:29:55.383Z,7.42
2024-05-09T01:32:30.123Z,7.40
2024-05-09T01:35:04.568Z,7.40
2024-05-09T01:37:40.439Z,7.30
2024-05-09T01:40:18.691Z,7.30
2024-05-09T01:42:59.209Z,7.24
2024-05-09T01:45:33.358Z,7.20
2024-05-09T01:48:09.385Z,7.20
2024-05-09T01:50:44.693Z,7.20
2024-05-09T01:53:19.031Z,7.20
2024-05-09T01:55:53.433Z,7.20
2024-05-09T01:58:28.125Z,7.20
2024-05-09T02:01:02.193Z,7.20
2024-05-09T02:03:37.059Z,7.20
2024-05-09T02:06:11.621Z,7.10
2024-05-09T02:08:48.349Z,7.10
2024-05-09T02:11:21.934Z,7.00
2024-05-09T02:13:56.141Z,6.94
2024-05-09T02:16:31.291Z,6.90
2024-05-09T02:19:06.487Z,6.80
2024-05-09T02:21:40.679Z,6.72
2024-05-09T02:24:14.665Z,6.70
2024-05-09T02:26:49.246Z,6.60
2024-05-09T02:29:23.653Z,6.60
2024-05-09T02:31:57.819Z,6.50
2024-05-09T02:34:32.434Z,6.40
2024-05-09T02:37:06.889Z,6.34
2024-05-09T02:39:42.037Z,6.30
2024-05-09T02:42:16.103Z,6.30
2024-05-09T02:44:49.767Z,6.28
2024-05-09T02:47:23.545Z,6.30
2024-05-09T02:49:58.378Z,6.30
2024-05-09T02:52:32.603Z,6.40
2024-05-09T02:55:07.026Z,6.40
2024-05-09T02:57:42.254Z,6.50
2024-05-09T03:00:22.807Z,6.50
2024-05-09T03:03:01.715Z,6.50
2024-05-09T03:05:35.906Z,6.40
2024-05-09T03:08:10.945Z,6.34
2024-05-09T03:10:45.725Z,6.30
2024-05-09T03:13:19.359Z,6.20
2024-05-09T03:15:53.892Z,6.20
2024-05-09T03:18:28.040Z,6.20
2024-05-09T03:21:02.402Z,6.20
2024-05-09T03:23:40.323Z,6.20
2024-05-09T03:26:19.522Z,6.20
2024-05-09T03:28:53.925Z,6.10
2024-05-09T03:31:28.473Z,6.10
2024-05-09T03:34:02.992Z,6.10
2024-05-09T03:36:41.951Z,6.00
2024-05-09T03:39:16.367Z,6.00
2024-05-09T03:41:50.606Z,6.00
2024-05-09T03:44:24.776Z,6.00
2024-05-09T03:46:59.390Z,6.00
2024-05-09T03:51:31.523Z,6.10
2024-05-09T03:54:05.928Z,6.10
2024-05-09T03:56:42.106Z,6.20
2024-05-09T03:59:16.204Z,6.20
2024-05-09T04:01:51.052Z,6.30
2024-05-09T04:04:25.800Z,6.40
2024-05-09T04:06:59.900Z,6.40
2024-05-09T04:09:34.548Z,6.50
2024-05-09T04:12:10.381Z,6.60
2024-05-09T04:14:44.484Z,6.60
2024-05-09T04:17:19.625Z,6.70
2024-05-09T04:19:54.304Z,6.80
2024-05-09T04:22:28.250Z,6.90
2024-05-09T04:25:02.387Z,6.90
2024-05-09T04:27:36.953Z,6.98
2024-05-09T04:30:18.959Z,7.00
2024-05-09T04:33:00.680Z,7.10
2024-05-09T04:35:36.723Z,7.18
2024-05-09T04:38:12.693Z,7.22
2024-05-09T04:40:47.150Z,7.32
2024-05-09T04:43:21.653Z,7.44
2024-05-09T04:45:56.350Z,7.50
2024-05-09T04:48:30.964Z,7.60
2024-05-09T04:51:08.156Z,7.70
2024-05-09T04:53:42.096Z,7.80
2024-05-09T04:56:16.168Z,7.90
2024-05-09T04:58:50.704Z,8.00
2024-05-09T05:01:26.707Z,8.16
2024-05-09T05:04:01.334Z,8.30
2024-05-09T05:06:36.212Z,8.40
2024-05-09T05:09:10.387Z,8.56
2024-05-09T05:11:44.087Z,8.68
2024-05-09T05:14:18.829Z,8.80
2024-05-09T05:16:52.342Z,8.90
2024-05-09T05:19:25.982Z,8.90
2024-05-09T05:22:00.187Z,9.00
2024-05-09T05:24:34.408Z,9.04
2024-05-09T05:27:09.018Z,9.10
2024-05-09T05:29:43.268Z,9.20
2024-05-09T05:32:18.290Z,9.30
2024-05-09T05:34:52.850Z,9.42
2024-05-09T05:37:28.559Z,9.56
2024-05-09T05:41:53.757Z,10.06
2024-05-09T05:44:28.052Z,10.14
2024-05-09T05:47:02.282Z,10.20
2024-05-09T05:49:36.689Z,10.30
2024-05-09T05:52:12.424Z,10.40
2024-05-09T05:54:48.535Z,10.50
2024-05-09T05:57:22.840Z,10.60
2024-05-09T05:59:57.235Z,10.70
2024-05-09T06:02:31.018Z,10.80
2024-05-09T06:05:05.777Z,10.90
2024-05-09T06:07:40.487Z,11.00
2024-05-09T06:10:21.258Z,11.18
2024-05-09T06:12:59.526Z,11.30
2024-05-09T06:15:33.702Z,11.40
2024-05-09T06:18:12.144Z,11.60
2024-05-09T06:20:47.350Z,11.74
2024-05-09T06:23:20.887Z,11.90
2024-05-09T06:25:54.877Z,12.00
2024-05-09T06:28:28.761Z,12.10
2024-05-09T06:31:04.487Z,12.18
2024-05-09T06:33:39.201Z,12.20
2024-05-09T06:36:13.662Z,12.32
2024-05-09T06:38:47.681Z,12.50
2024-05-09T06:41:21.353Z,12.70
2024-05-09T06:43:55.628Z,12.82
2024-05-09T06:46:29.942Z,13.00
2024-05-09T06:49:08.593Z,13.20
2024-05-09T06:51:42.799Z,13.30
2024-05-09T06:54:18.327Z,13.30
2024-05-09T06:56:52.735Z,13.40
2024-05-09T06:59:27.067Z,13.50
2024-05-09T07:02:01.254Z,13.62
2024-05-09T07:04:35.664Z,13.78
2024-05-09T07:07:09.713Z,13.90
2024-05-09T07:12:31.320Z,14.18
2024-05-09T07:15:06.343Z,14.22
2024-05-09T07:17:41.067Z,14.30
2024-05-09T07:20:23.206Z,14.40
2024-05-09T07:23:02.042Z,14.60
2024-05-09T07:25:36.316Z,14.68
2024-05-09T07:28:17.582Z,14.70
2024-05-09T07:30:52.144Z,14.70
2024-05-09T07:33:25.945Z,14.80
2024-05-09T07:36:01.198Z,14.82
2024-05-09T07:38:35.934Z,15.00
2024-05-09T07:41:10.441Z,15.18
2024-05-09T07:43:45.021Z,15.30
2024-05-09T07:47:14.494Z,15.44
2024-05-09T07:50:55.679Z,15.60
2024-05-09T07:54:48.071Z,15.60
2024-05-09T07:57:22.223Z,15.70
2024-05-09T07:59:55.883Z,15.70
2024-05-09T08:02:30.226Z,15.78
2024-05-09T08:05:04.385Z,15.80
2024-05-09T08:07:41.579Z,15.90
2024-05-09T08:12:55.021Z,16.10
2024-05-09T08:15:29.902Z,16.26
2024-05-09T08:18:04.158Z,16.32
2024-05-09T08:20:40.171Z,16.30
2024-05-09T08:23:15.535Z,16.20
2024-05-09T08:25:49.341Z,16.30
2024-05-09T08:28:23.388Z,16.46
2024-05-09T08:30:58.395Z,16.50
2024-05-09T08:33:32.788Z,16.50
2024-05-09T08:36:07.676Z,16.60
2024-05-09T08:38:42.361Z,16.70
2024-05-09T08:41:18.104Z,16.80
2024-05-09T08:43:52.054Z,16.80
2024-05-09T08:46:27.915Z,16.80
2024-05-09T08:49:05.737Z,16.90
2024-05-09T08:51:40.763Z,17.00
2024-05-09T08:54:14.493Z,17.00
2024-05-09T08:56:51.334Z,17.10
2024-05-09T08:59:36.849Z,17.20
2024-05-09T09:02:14.808Z,17.20
2024-05-09T09:04:59.496Z,17.30
2024-05-09T09:07:36.175Z,17.30
2024-05-09T09:10:17.686Z,17.30
2024-05-09T09:13:04.447Z,17.40
2024-05-09T09:15:49.254Z,17.50
2024-05-09T09:18:24.537Z,17.70
2024-05-09T09:21:00.733Z,17.80
2024-05-09T09:23:34.353Z,17.80
2024-05-09T09:26:08.372Z,17.82
2024-05-09T09:28:42.670Z,17.90
2024-05-09T09:31:21.961Z,17.80
2024-05-09T09:33:56.383Z,17.90
2024-05-09T09:36:33.005Z,17.80
2024-05-09T09:39:08.394Z,17.90
2024-05-09T09:41:45.368Z,17.80
2024-05-09T09:44:23.183Z,17.80
2024-05-09T09:47:01.092Z,17.90
2024-05-09T09:49:39.670Z,17.90
2024-05-09T09:52:14.839Z,18.00
2024-05-09T09:54:51.014Z,18.10
2024-05-09T09:57:27.791Z,18.20
2024-05-09T10:00:03.259Z,18.30
2024-05-09T10:02:48.802Z,18.30
2024-05-09T10:05:23.651Z,18.50
2024-05-09T10:08:04.708Z,18.50
2024-05-09T10:10:39.637Z,18.68
2024-05-09T10:13:14.228Z,18.80
2024-05-09T10:15:52.421Z,18.80
2024-05-09T10:18:39.163Z,18.92
2024-05-09T10:21:23.354Z,18.90
2024-05-09T10:24:06.169Z,19.08
2024-05-09T10:26:42.795Z,19.22
2024-05-09T10:29:17.764Z,19.60
2024-05-09T10:31:52.473Z,19.90
2024-05-09T10:34:33.907Z,20.10
2024-05-09T10:37:08.969Z,20.24
2024-05-09T10:39:44.061Z,20.40
2024-05-09T10:42:20.009Z,20.58
2024-05-09T10:44:54.582Z,20.50
2024-05-09T10:47:30.151Z,20.50
2024-05-09T10:50:12.734Z,20.30
2024-05-09T10:55:00.361Z,20.66
2024-05-09T10:57:42.131Z,20.70
2024-05-09T11:00:27.052Z,20.60
2024-05-09T11:03:04.723Z,20.60
2024-05-09T11:05:43.638Z,20.80
2024-05-09T11:08:18.953Z,20.90
2024-05-09T11:10:55.146Z,21.08
2024-05-09T11:13:33.835Z,21.20
2024-05-09T11:16:19.378Z,21.30
2024-05-09T11:19:00.201Z,21.60
2024-05-09T11:21:34.263Z,21.86
2024-05-09T11:24:11.333Z,23.26
2024-05-09T11:26:45.877Z,23.80
2024-05-09T11:29:20.063Z,23.92
2024-05-09T11:31:53.717Z,24.20
2024-05-09T11:34:27.383Z,24.26
2024-05-09T11:37:01.835Z,24.00
2024-05-09T11:39:36.105Z,24.20
2024-05-09T11:42:10.091Z,24.20
2024-05-09T11:44:44.158Z,24.50
2024-05-09T11:47:18.032Z,25.08
2024-05-09T11:49:51.972Z,25.76
2024-05-09T11:52:25.899Z,25.80
2024-05-09T11:55:00.258Z,25.70
2024-05-09T12:00:47.770Z,25.56
2024-05-09T12:03:22.149Z,25.32
2024-05-09T12:05:57.200Z,25.00
2024-05-09T12:08:30.840Z,25.10
2024-05-09T12:11:05.074Z,24.90
2024-05-09T12:13:38.964Z,24.38
2024-05-09T12:16:13.536Z,23.80
2024-05-09T12:18:47.417Z,23.28
2024-05-09T12:21:22.487Z,22.90
2024-05-09T12:23:56.014Z,22.88
2024-05-09T12:26:30.071Z,23.54
2024-05-09T12:29:04.089Z,24.12
2024-05-09T12:31:37.875Z,24.50
2024-05-09T12:34:11.776Z,24.40
2024-05-09T12:36:46.205Z,23.98
2024-05-09T12:39:20.095Z,23.42
2024-05-09T12:41:54.389Z,22.90
2024-05-09T12:44:28.792Z,22.36
2024-05-09T12:47:03.156Z,21.62
2024-05-09T12:49:37.373Z,21.18
2024-05-09T12:52:11.337Z,21.00
2024-05-09T12:54:45.504Z,21.32
2024-05-09T12:57:22.317Z,22.50
2024-05-09T12:59:56.824Z,24.04
2024-05-09T13:02:33.214Z,25.26
2024-05-09T13:05:08.125Z,26.08
2024-05-09T13:07:42.749Z,26.76
2024-05-09T13:10:28.650Z,27.10
2024-05-09T13:13:06.704Z,27.42
2024-05-09T13:15:40.844Z,28.00
2024-05-09T13:18:14.783Z,28.20
2024-05-09T13:20:49.189Z,28.00
2024-05-09T13:23:23.741Z,28.26
2024-05-09T13:25:57.837Z,27.82
2024-05-09T13:28:33.572Z,27.20
2024-05-09T13:31:07.764Z,27.00
2024-05-09T13:33:41.580Z,27.26
2024-05-09T13:36:15.875Z,27.78
2024-05-09T13:38:50.449Z,28.36
2024-05-09T13:41:24.990Z,28.50
2024-05-09T13:43:59.313Z,28.70
2024-05-09T13:46:33.453Z,28.56
2024-05-09T13:49:09.468Z,28.60
2024-05-09T13:51:44.888Z,28.60
2024-05-09T13:54:22.433Z,28.70
2024-05-09T13:56:59.344Z,28.80
2024-05-09T13:59:33.980Z,29.00
2024-05-09T14:02:08.825Z,29.30
2024-05-09T14:04:43.598Z,29.60
2024-05-09T14:07:17.927Z,30.02
2024-05-09T14:09:52.942Z,30.00
2024-05-09T14:12:27.445Z,29.80
2024-05-09T14:15:02.359Z,29.80
2024-05-09T14:17:36.554Z,29.80
2024-05-09T14:20:14.186Z,29.50
2024-05-09T14:22:51.011Z,29.60
2024-05-09T14:25:26.650Z,29.70
2024-05-09T14:28:01.782Z,29.60
2024-05-09T14:30:38.200Z,29.20
2024-05-09T14:33:13.205Z,28.90
2024-05-09T14:35:48.146Z,28.70
2024-05-09T14:38:21.847Z,28.90
2024-05-09T14:40:56.102Z,29.20
2024-05-09T14:43:37.981Z,29.34
2024-05-09T14:46:12.042Z,29.38
2024-05-09T14:48:46.899Z,29.66
2024-05-09T14:51:21.333Z,29.80
2024-05-09T14:53:55.812Z,30.12
2024-05-09T14:56:29.994Z,30.60
2024-05-09T14:59:06.890Z,30.50
2024-05-09T15:01:41.349Z,30.20
2024-05-09T15:04:15.963Z,29.80
2024-05-09T15:06:50.311Z,29.90
2024-05-09T15:09:25.626Z,30.00
2024-05-09T15:11:59.600Z,30.00
2024-05-09T15:14:33.971Z,30.14
2024-05-09T15:17:08.191Z,30.42
2024-05-09T15:19:45.674Z,30.60
2024-05-09T15:22:20.990Z,30.60
2024-05-09T15:24:55.286Z,30.30
2024-05-09T15:27:29.940Z,29.90
2024-05-09T15:30:06.943Z,29.80
2024-05-09T15:32:46.042Z,29.90
2024-05-09T15:35:20.156Z,30.00
2024-05-09T15:37:54.773Z,30.10
2024-05-09T15:40:39.438Z,30.10
2024-05-09T15:43:16.995Z,30.00
2024-05-09T15:45:51.788Z,30.16
2024-05-09T15:48:26.905Z,30.60
2024-05-09T15:51:00.982Z,30.60
2024-05-09T15:53:36.155Z,30.80
2024-05-09T15:56:11.446Z,30.82
2024-05-09T15:58:45.807Z,30.60
2024-05-09T16:01:20.004Z,30.20
2024-05-09T16:03:54.568Z,29.76
2024-05-09T16:06:28.894Z,29.30
2024-05-09T16:09:02.716Z,29.26
2024-05-09T16:11:37.870Z,29.48
2024-05-09T16:14:13.904Z,29.38
2024-05-09T16:16:51.162Z,29.10
2024-05-09T16:19:25.288Z,29.00
2024-05-09T16:22:00.534Z,29.00
2024-05-09T16:24:34.783Z,28.80
2024-05-09T16:27:09.393Z,28.60
2024-05-09T16:29:43.349Z,28.30
2024-05-09T16:32:17.865Z,28.20
2024-05-09T16:34:52.330Z,28.10
2024-05-09T16:37:31.279Z,28.00
2024-05-09T16:40:09.905Z,27.80
2024-05-09T16:42:51.595Z,27.64
2024-05-09T16:45:26.700Z,27.78
2024-05-09T16:48:04.199Z,27.80
2024-05-09T16:50:39.252Z,27.56
2024-05-09T16:53:14.249Z,27.08
2024-05-09T16:55:48.713Z,26.80
2024-05-09T16:58:23.565Z,26.70
2024-05-09T17:00:58.240Z,26.48
2024-05-09T17:03:32.790Z,25.08
2024-05-09T17:06:08.871Z,23.54
2024-05-09T17:08:43.865Z,22.34
2024-05-09T17:11:19.644Z,21.48
2024-05-09T17:13:55.010Z,20.74
2024-05-09T17:16:30.519Z,20.10
2024-05-09T17:19:04.857Z,19.60
2024-05-09T17:21:39.517Z,19.20
2024-05-09T17:24:14.020Z,18.80
2024-05-09T17:26:48.225Z,18.48
2024-05-09T17:29:23.311Z,18.20
2024-05-09T17:31:58.425Z,18.00
2024-05-09T17:34:32.848Z,17.70
2024-05-09T17:39:24.722Z,17.24
2024-05-09T17:41:58.654Z,17.10
2024-05-09T17:44:33.291Z,16.90
2024-05-09T17:47:07.872Z,16.70
2024-05-09T17:49:42.832Z,16.56
2024-05-09T17:52:16.720Z,16.40
2024-05-09T18:06:38.332Z,15.72
2024-05-09T18:09:13.922Z,15.60
2024-05-09T18:11:50.480Z,15.46
2024-05-09T18:14:26.955Z,15.28
2024-05-09T18:17:01.432Z,15.10
2024-05-09T18:19:36.091Z,14.90
2024-05-09T18:22:11.486Z,14.80
2024-05-09T18:24:46.562Z,14.60
2024-05-09T18:27:22.556Z,14.50
2024-05-09T18:29:57.277Z,14.30
2024-05-09T18:32:35.029Z,14.20
2024-05-09T18:35:09.591Z,14.10
2024-05-09T18:37:47.635Z,13.90
2024-05-09T18:40:31.134Z,13.76
2024-05-09T18:43:11.402Z,13.60
2024-05-09T18:45:46.002Z,13.50
2024-05-09T18:48:19.982Z,13.40
2024-05-09T18:50:54.365Z,13.30
2024-05-09T18:53:28.701Z,13.30
2024-05-09T18:56:03.314Z,13.22
2024-05-09T18:58:36.981Z,13.10
2024-05-09T19:01:12.086Z,13.00
2024-05-09T19:03:48.481Z,12.90
2024-05-09T19:06:24.712Z,12.80
2024-05-09T19:09:01.694Z,12.62
2024-05-09T19:11:35.936Z,12.50
2024-05-09T19:14:11.408Z,12.40
2024-05-09T19:16:46.804Z,12.30
2024-05-09T19:19:22.179Z,12.22
2024-05-09T19:21:58.543Z,12.10
2024-05-09T19:24:32.940Z,12.00
2024-05-09T19:27:07.670Z,11.90
2024-05-09T19:29:42.145Z,11.80
2024-05-09T19:32:16.302Z,11.70
2024-05-09T19:34:50.907Z,11.60
2024-05-09T19:37:25.335Z,11.50
2024-05-09T19:40:00.007Z,11.40
2024-05-09T19:42:34.232Z,11.40
2024-05-09T19:45:09.857Z,11.40
2024-05-09T19:47:45.266Z,11.36
2024-05-09T19:50:27.017Z,11.30
2024-05-09T19:53:11.462Z,11.20
2024-05-09T19:55:45.698Z,11.04
2024-05-09T19:58:19.507Z,10.98
2024-05-09T20:00:54.264Z,10.84
2024-05-09T20:03:28.363Z,10.74
2024-05-09T20:06:03.520Z,10.62
2024-05-09T20:08:37.772Z,10.60
2024-05-09T20:11:13.753Z,10.50
2024-05-09T20:13:50.732Z,10.40
2024-05-09T20:16:26.547Z,10.40
2024-05-09T20:19:01.038Z,10.40
2024-05-09T20:21:59.143Z,10.30
2024-05-09T20:24:33.398Z,10.30
2024-05-09T20:27:08.611Z,10.20
2024-05-09T20:29:42.888Z,10.10
2024-05-09T20:32:16.515Z,10.00
2024-05-09T20:34:51.812Z,9.90
2024-05-09T20:37:26.794Z,9.80
2024-05-09T20:40:00.946Z,9.70
2024-05-09T20:42:36.002Z,9.70
2024-05-09T20:45:11.189Z,9.62
2024-05-09T20:47:45.228Z,9.60
2024-05-09T20:50:47.816Z,9.50
2024-05-09T20:53:21.984Z,9.50
2024-05-09T20:55:56.717Z,9.40
2024-05-09T20:58:31.213Z,9.40
2024-05-09T21:01:05.828Z,9.40
2024-05-09T21:03:42.610Z,9.30
2024-05-09T21:06:17.015Z,9.22
2024-05-09T21:08:51.070Z,9.20
2024-05-09T21:11:25.384Z,9.10
2024-05-09T21:14:00.723Z,9.00
2024-05-09T21:16:35.013Z,8.90
2024-05-09T21:19:42.661Z,8.82
2024-05-09T21:22:16.854Z,8.80
2024-05-09T21:24:51.765Z,8.70
2024-05-09T21:27:25.697Z,8.70
2024-05-09T21:36:23.588Z,8.60
2024-05-09T21:38:57.609Z,8.60
2024-05-09T21:41:31.231Z,8.60
2024-05-09T21:44:05.290Z,8.50
2024-05-09T21:46:39.018Z,8.50
2024-05-09T21:49:14.718Z,8.40
2024-05-09T21:51:48.996Z,8.40
2024-05-09T21:54:23.863Z,8.40
2024-05-09T21:56:57.768Z,8.40
2024-05-09T21:59:35.139Z,8.30
2024-05-09T22:02:09.531Z,8.30
2024-05-09T22:04:44.329Z,8.20
2024-05-09T22:07:18.773Z,8.20
2024-05-09T22:09:53.286Z,8.20
2024-05-09T22:12:29.626Z,8.10
2024-05-09T22:15:04.105Z,8.10
2024-05-09T22:17:41.720Z,8.02
2024-05-09T22:20:25.093Z,8.02
2024-05-09T22:23:03.113Z,8.00
2024-05-09T22:25:38.747Z,7.96
2024-05-09T22:28:14.135Z,7.90
2024-05-09T22:30:48.092Z,7.84
2024-05-09T22:33:22.283Z,7.82
2024-05-09T22:39:17.943Z,7.90
2024-05-09T22:41:52.008Z,7.96
2024-05-09T22:44:26.647Z,8.00
2024-05-09T22:47:01.414Z,7.92
2024-05-09T22:49:35.621Z,7.90
2024-05-09T22:52:09.732Z,7.90
2024-05-09T22:54:45.109Z,7.86
2024-05-09T22:57:19.177Z,7.80
2024-05-09T22:59:53.320Z,7.76
2024-05-09T23:02:28.339Z,7.70
2024-05-09T23:05:02.584Z,7.60
2024-05-09T23:07:37.005Z,7.50
2024-05-09T23:10:17.363Z,7.42
2024-05-09T23:12:58.551Z,7.40
2024-05-09T23:15:35.931Z,7.40
2024-05-09T23:18:11.401Z,7.32
2024-05-09T23:20:46.493Z,7.30
2024-05-09T23:23:20.481Z,7.30
2024-05-09T23:25:55.569Z,7.30
2024-05-09T23:28:29.687Z,7.30
2024-05-09T23:31:04.134Z,7.20
2024-05-09T23:33:38.084Z,7.20
2024-05-09T23:36:12.440Z,7.20
2024-05-09T23:38:47.175Z,7.20
2024-05-09T23:41:20.979Z,7.20
2024-05-09T23:43:54.446Z,7.16
2024-05-09T23:46:28.180Z,7.10
2024-05-09T23:49:02.981Z,7.10
2024-05-09T23:51:37.452Z,7.00
2024-05-09T23:54:11.364Z,7.00
2024-05-09T23:56:45.439Z,6.90
2024-05-09T23:59:19.362Z,6.90
